Time;durP1;ratioP1;P1;durP2;ratioP2;P2;SDS_P1;SDS_P2;PMS_P1;PMS_P2;Temp;Humidity;BMP_temperature;BMP_pressure;BME280_temperature;BME280_humidity;BME280_pressure;Samples;Min_cycle;Max_cycle;Signal;HPM_P1;HPM_P2
2023/01/08 00:01:02;;;;;;;7.93;4.47;;;;;;;;;;4972428;28;20286;-64
2023/01/08 00:03:28;;;;;;;4.85;3.42;;;;;;;;;;4940196;28;20274;-64
2023/01/08 00:05:53;;;;;;;12.60;5.60;;;;;;;;;;4972386;28;20481;-64
2023/01/08 00:08:19;;;;;;;11.67;4.87;;;;;;;;;;4956114;28;20035;-64
2023/01/08 00:10:44;;;;;;;9.70;3.93;;;;;;;;;;4956154;28;20453;-65
2023/01/08 00:13:10;;;;;;;10.80;5.20;;;;;;;;;;4956267;28;20274;-64
2023/01/08 00:15:36;;;;;;;6.67;4.43;;;;;;;;;;4957683;28;20070;-65
2023/01/08 00:18:02;;;;;;;6.80;3.97;;;;;;;;;;4958014;28;20129;-64
2023/01/08 00:20:27;;;;;;;13.93;4.80;;;;;;;;;;4941869;28;20149;-64
2023/01/08 00:22:53;;;;;;;6.20;3.53;;;;;;;;;;4957532;28;20297;-64
2023/01/08 00:25:19;;;;;;;5.63;4.57;;;;;;;;;;4958484;28;20042;-65
2023/01/08 00:27:45;;;;;;;9.23;4.20;;;;;;;;;;4957784;28;20488;-64
2023/01/08 00:30:11;;;;;;;5.77;3.60;;;;;;;;;;4974266;28;20105;-65
2023/01/08 00:32:36;;;;;;;5.47;3.50;;;;;;;;;;4958412;28;20069;-64
2023/01/08 00:35:02;;;;;;;8.47;4.80;;;;;;;;;;4975460;28;20125;-64
2023/01/08 00:37:29;;;;;;;8.13;3.90;;;;;;;;;;4959802;28;20042;-64
2023/01/08 00:39:55;;;;;;;7.53;4.20;;;;;;;;;;4975721;28;20289;-64
2023/01/08 00:42:20;;;;;;;10.27;3.97;;;;;;;;;;4959573;28;20035;-64
2023/01/08 00:44:46;;;;;;;5.67;4.00;;;;;;;;;;4975866;28;20035;-64
2023/01/08 00:47:12;;;;;;;7.20;4.03;;;;;;;;;;4974754;28;20043;-64
2023/01/08 00:49:37;;;;;;;14.10;4.43;;;;;;;;;;4958405;28;20073;-64
2023/01/08 00:52:03;;;;;;;6.80;4.40;;;;;;;;;;4975022;28;20342;-63
2023/01/08 00:54:29;;;;;;;6.50;4.23;;;;;;;;;;4976007;28;20059;-64
2023/01/08 00:56:54;;;;;;;11.67;4.87;;;;;;;;;;4975094;28;20286;-64
2023/01/08 00:59:20;;;;;;;4.03;3.40;;;;;;;;;;4975488;28;20037;-64
2023/01/08 01:01:48;;;;;;;12.10;5.60;;;;;;;;;;4958862;28;20031;-64
2023/01/08 01:04:14;;;;;;;7.90;4.50;;;;;;;;;;4958508;28;20673;-64
2023/01/08 01:06:41;;;;;;;11.23;3.63;;;;;;;;;;4974492;28;20488;-64
2023/01/08 01:09:07;;;;;;;11.27;4.60;;;;;;;;;;4958668;28;20035;-64
2023/01/08 01:11:33;;;;;;;17.40;5.00;;;;;;;;;;4974350;28;20340;-64
2023/01/08 01:13:58;;;;;;;4.40;3.50;;;;;;;;;;4974729;28;20088;-64
2023/01/08 01:16:24;;;;;;;10.47;4.23;;;;;;;;;;4958044;28;20101;-64
2023/01/08 01:18:51;;;;;;;7.13;4.13;;;;;;;;;;4958227;28;20038;-64
2023/01/08 01:21:19;;;;;;;7.90;4.23;;;;;;;;;;4974683;28;20096;-64
2023/01/08 01:23:47;;;;;;;15.03;5.07;;;;;;;;;;4957932;28;20279;-64
2023/01/08 01:26:15;;;;;;;9.17;4.37;;;;;;;;;;4957331;28;20771;-64
2023/01/08 01:28:40;;;;;;;8.43;3.97;;;;;;;;;;4973937;28;20465;-64
2023/01/08 01:31:07;;;;;;;7.30;4.40;;;;;;;;;;4942181;28;20285;-64
2023/01/08 01:33:33;;;;;;;10.13;4.70;;;;;;;;;;4958039;28;20038;-64
2023/01/08 01:35:59;;;;;;;7.13;4.70;;;;;;;;;;4958062;28;20629;-64
2023/01/08 01:38:25;;;;;;;3.57;3.27;;;;;;;;;;4975287;28;20385;-64
2023/01/08 01:40:50;;;;;;;6.60;4.30;;;;;;;;;;4957967;28;20326;-64
2023/01/08 01:43:34;;;;;;;5.77;3.83;;;;;;;;;;4942271;28;20097;-65
2023/01/08 01:46:01;;;;;;;10.10;4.40;;;;;;;;;;4957528;28;20589;-64
2023/01/08 01:48:26;;;;;;;7.77;3.87;;;;;;;;;;4957642;28;20390;-65
2023/01/08 01:50:53;;;;;;;5.93;3.33;;;;;;;;;;4974066;28;20407;-64
2023/01/08 01:53:18;;;;;;;4.60;3.53;;;;;;;;;;4974628;28;20397;-64
2023/01/08 01:55:44;;;;;;;9.70;3.63;;;;;;;;;;4941774;28;20278;-65
2023/01/08 01:58:14;;;;;;;5.57;4.07;;;;;;;;;;4941648;28;20460;-64
2023/01/08 02:00:41;;;;;;;5.97;3.97;;;;;;;;;;4974627;28;20069;-64
2023/01/08 02:03:08;;;;;;;8.23;3.87;;;;;;;;;;4957730;28;20061;-64
2023/01/08 02:06:03;;;;;;;10.00;3.93;;;;;;;;;;4973644;28;20296;-64
2023/01/08 02:08:38;;;;;;;8.40;3.77;;;;;;;;;;4956833;28;20275;-64
2023/01/08 02:11:03;;;;;;;3.67;3.30;;;;;;;;;;4974356;28;20290;-65
2023/01/08 02:13:32;;;;;;;4.03;3.23;;;;;;;;;;4973154;28;20298;-65
2023/01/08 02:16:08;;;;;;;10.07;3.17;;;;;;;;;;4973744;28;20155;-64
2023/01/08 02:18:37;;;;;;;3.40;3.03;;;;;;;;;;4957127;28;20282;-65
2023/01/08 02:21:08;;;;;;;7.00;3.60;;;;;;;;;;4957350;28;20274;-64
2023/01/08 02:23:49;;;;;;;4.40;3.00;;;;;;;;;;4974225;28;20369;-64
2023/01/08 02:26:14;;;;;;;3.50;2.77;;;;;;;;;;4956442;28;20282;-65
2023/01/08 02:28:42;;;;;;;3.57;3.03;;;;;;;;;;4972746;28;20344;-64
2023/01/08 02:31:08;;;;;;;3.00;2.70;;;;;;;;;;4956781;28;20030;-64
2023/01/08 02:33:34;;;;;;;3.60;3.00;;;;;;;;;;4973704;28;20310;-64
2023/01/08 02:36:09;;;;;;;10.20;3.77;;;;;;;;;;4956425;28;20130;-64
2023/01/08 02:38:35;;;;;;;5.37;3.07;;;;;;;;;;4972809;28;20285;-64
2023/01/08 02:41:04;;;;;;;6.40;3.10;;;;;;;;;;4956497;28;20294;-64
2023/01/08 02:43:44;;;;;;;5.00;3.57;;;;;;;;;;4973477;28;20356;-65
2023/01/08 02:46:12;;;;;;;8.45;3.60;;;;;;;;;;4972626;28;20288;-64
2023/01/08 02:48:40;;;;;;;3.70;3.03;;;;;;;;;;4956713;28;20089;-64
2023/01/08 02:51:08;;;;;;;4.93;3.27;;;;;;;;;;4973841;28;20693;-65
2023/01/08 02:53:39;;;;;;;5.70;3.23;;;;;;;;;;4956038;28;20416;-64
2023/01/08 02:56:10;;;;;;;6.13;3.30;;;;;;;;;;4956594;28;20289;-64
2023/01/08 02:58:37;;;;;;;4.13;2.80;;;;;;;;;;4972287;28;20302;-65
2023/01/08 03:01:04;;;;;;;6.73;3.67;;;;;;;;;;4972873;28;20677;-65
2023/01/08 03:03:31;;;;;;;3.87;2.90;;;;;;;;;;4958091;28;20281;-65
2023/01/08 03:06:00;;;;;;;4.93;3.27;;;;;;;;;;4973759;28;20278;-64
2023/01/08 03:08:26;;;;;;;5.73;3.50;;;;;;;;;;4956978;28;20288;-65
2023/01/08 03:10:54;;;;;;;4.00;2.60;;;;;;;;;;4974064;28;20302;-64
2023/01/08 03:13:25;;;;;;;5.67;3.00;;;;;;;;;;4973064;28;20294;-64
2023/01/08 03:15:54;;;;;;;6.03;3.00;;;;;;;;;;4973109;28;20831;-64
2023/01/08 03:18:23;;;;;;;4.10;3.13;;;;;;;;;;4972387;28;20373;-63
2023/01/08 03:20:49;;;;;;;3.97;3.23;;;;;;;;;;4955988;28;20290;-65
2023/01/08 03:23:16;;;;;;;4.87;3.23;;;;;;;;;;4956360;28;20270;-64
2023/01/08 03:25:44;;;;;;;2.57;2.33;;;;;;;;;;4972299;28;20300;-64
2023/01/08 03:28:21;;;;;;;4.47;2.70;;;;;;;;;;4956405;28;20308;-64
2023/01/08 03:30:48;;;;;;;13.90;3.47;;;;;;;;;;4972145;28;20757;-64
2023/01/08 03:33:15;;;;;;;5.33;2.73;;;;;;;;;;4971869;28;20298;-64
2023/01/08 03:35:42;;;;;;;3.87;2.73;;;;;;;;;;4971903;28;20758;-64
2023/01/08 03:38:31;;;;;;;2.47;2.27;;;;;;;;;;4972453;28;20286;-64
2023/01/08 03:40:58;;;;;;;5.23;2.80;;;;;;;;;;4955133;28;20340;-64
2023/01/08 03:43:24;;;;;;;4.03;2.90;;;;;;;;;;4939760;28;20274;-64
2023/01/08 03:45:56;;;;;;;3.23;2.97;;;;;;;;;;4955612;28;20344;-64
2023/01/08 03:48:22;;;;;;;4.70;2.73;;;;;;;;;;4939636;28;20133;-64
2023/01/08 03:50:48;;;;;;;4.10;2.53;;;;;;;;;;4975251;28;20428;-64
2023/01/08 03:53:14;;;;;;;6.43;3.03;;;;;;;;;;4959175;28;20397;-64
2023/01/08 03:55:39;;;;;;;10.70;4.47;;;;;;;;;;4975414;28;20034;-64
2023/01/08 03:58:05;;;;;;;8.17;3.63;;;;;;;;;;4975592;28;20041;-64
2023/01/08 04:00:31;;;;;;;4.20;2.87;;;;;;;;;;4975864;28;20044;-64
2023/01/08 04:02:57;;;;;;;7.60;2.60;;;;;;;;;;4958529;28;20038;-64
2023/01/08 04:05:22;;;;;;;3.47;2.43;;;;;;;;;;4957078;28;20150;-64
2023/01/08 04:07:48;;;;;;;4.97;3.10;;;;;;;;;;4973421;28;20057;-64
2023/01/08 04:10:13;;;;;;;5.83;3.50;;;;;;;;;;4957535;28;20039;-64
2023/01/08 04:12:40;;;;;;;5.70;3.17;;;;;;;;;;4973528;28;20050;-64
2023/01/08 04:15:09;;;;;;;6.50;3.47;;;;;;;;;;4973194;28;20042;-64
2023/01/08 04:17:34;;;;;;;5.80;2.67;;;;;;;;;;4957949;28;20290;-64
2023/01/08 04:20:00;;;;;;;6.30;2.87;;;;;;;;;;4959099;28;20288;-64
2023/01/08 04:22:26;;;;;;;3.83;2.43;;;;;;;;;;4958832;28;20363;-64
2023/01/08 04:24:52;;;;;;;6.73;2.83;;;;;;;;;;4959165;28;20377;-64
2023/01/08 04:27:17;;;;;;;7.67;3.13;;;;;;;;;;4974905;28;20133;-64
2023/01/08 04:29:43;;;;;;;3.93;2.90;;;;;;;;;;4974971;28;20070;-64
2023/01/08 04:32:08;;;;;;;3.47;2.67;;;;;;;;;;4958642;28;20126;-64
2023/01/08 04:34:34;;;;;;;6.60;3.30;;;;;;;;;;4976140;28;20043;-64
2023/01/08 04:37:00;;;;;;;7.73;3.13;;;;;;;;;;4974521;28;20050;-64
2023/01/08 04:39:26;;;;;;;3.33;2.63;;;;;;;;;;4958772;28;20039;-64
2023/01/08 04:41:52;;;;;;;6.40;3.80;;;;;;;;;;4958546;28;20336;-64
2023/01/08 04:44:17;;;;;;;2.87;2.57;;;;;;;;;;4958536;28;20039;-64
2023/01/08 04:46:43;;;;;;;4.97;2.97;;;;;;;;;;4958958;28;20039;-64
2023/01/08 04:49:09;;;;;;;2.90;2.40;;;;;;;;;;4958321;28;20388;-64
2023/01/08 04:51:34;;;;;;;4.03;3.37;;;;;;;;;;4974736;28;20186;-64
2023/01/08 04:54:00;;;;;;;4.97;3.23;;;;;;;;;;4942042;28;20181;-64
2023/01/08 04:56:26;;;;;;;8.33;3.33;;;;;;;;;;4957988;28;20034;-64
2023/01/08 04:58:51;;;;;;;12.13;3.90;;;;;;;;;;4974309;28;20038;-66
2023/01/08 05:01:21;;;;;;;11.17;3.47;;;;;;;;;;4957006;28;20485;-64
2023/01/08 05:03:47;;;;;;;8.85;4.30;;;;;;;;;;4974210;28;20402;-64
2023/01/08 05:06:13;;;;;;;5.17;3.03;;;;;;;;;;4974243;28;20101;-64
2023/01/08 05:08:38;;;;;;;3.87;2.83;;;;;;;;;;4957994;28;20751;-65
2023/01/08 05:11:04;;;;;;;5.73;3.50;;;;;;;;;;4975369;28;20039;-65
2023/01/08 05:13:30;;;;;;;4.00;3.07;;;;;;;;;;4973886;28;20054;-64
2023/01/08 05:15:59;;;;;;;9.10;4.57;;;;;;;;;;4957853;28;20051;-65
2023/01/08 05:18:26;;;;;;;8.93;4.07;;;;;;;;;;4957619;28;20527;-65
2023/01/08 05:20:51;;;;;;;6.60;4.37;;;;;;;;;;4957501;28;20305;-65
2023/01/08 05:23:17;;;;;;;11.50;3.60;;;;;;;;;;4973618;28;20270;-64
2023/01/08 05:25:42;;;;;;;7.33;3.30;;;;;;;;;;4973890;28;20050;-64
2023/01/08 05:28:08;;;;;;;10.77;3.87;;;;;;;;;;4957809;28;20145;-64
2023/01/08 05:30:35;;;;;;;6.97;3.80;;;;;;;;;;4973903;28;20057;-64
2023/01/08 05:33:00;;;;;;;6.20;3.67;;;;;;;;;;4957273;28;20038;-64
2023/01/08 05:35:26;;;;;;;9.53;3.60;;;;;;;;;;4957418;28;20602;-64
2023/01/08 05:37:51;;;;;;;6.67;4.40;;;;;;;;;;4941562;28;20045;-64
2023/01/08 05:40:17;;;;;;;5.23;3.67;;;;;;;;;;4973498;28;20057;-65
2023/01/08 05:42:43;;;;;;;8.33;3.57;;;;;;;;;;4974681;28;20054;-64
2023/01/08 05:45:09;;;;;;;11.70;4.47;;;;;;;;;;4973908;28;20129;-65
2023/01/08 05:47:34;;;;;;;6.37;3.87;;;;;;;;;;4957286;28;20047;-64
2023/01/08 05:50:00;;;;;;;7.07;4.13;;;;;;;;;;4957600;28;20046;-64
2023/01/08 05:52:26;;;;;;;5.17;3.23;;;;;;;;;;4957026;28;20105;-64
2023/01/08 05:54:51;;;;;;;8.33;3.93;;;;;;;;;;4973221;28;20046;-64
2023/01/08 05:57:17;;;;;;;9.83;3.87;;;;;;;;;;4973465;28;20042;-64
2023/01/08 05:59:43;;;;;;;8.13;3.90;;;;;;;;;;4973608;28;20077;-65
2023/01/08 06:02:08;;;;;;;5.07;3.20;;;;;;;;;;4941344;28;20141;-66
2023/01/08 06:04:34;;;;;;;7.80;4.60;;;;;;;;;;4972999;28;20034;-64
2023/01/08 06:06:59;;;;;;;4.73;3.20;;;;;;;;;;4974097;28;20415;-64
2023/01/08 06:09:25;;;;;;;7.73;4.70;;;;;;;;;;4972778;28;20482;-64
2023/01/08 06:11:51;;;;;;;8.30;4.53;;;;;;;;;;4956646;28;20034;-64
2023/01/08 06:14:17;;;;;;;8.47;4.40;;;;;;;;;;4972727;28;20437;-65
2023/01/08 06:16:43;;;;;;;9.90;5.67;;;;;;;;;;4974282;28;20838;-64
2023/01/08 06:19:09;;;;;;;13.97;5.97;;;;;;;;;;4973480;28;20278;-64
2023/01/08 06:21:35;;;;;;;8.83;4.80;;;;;;;;;;4957428;28;20041;-64
2023/01/08 06:24:01;;;;;;;8.90;4.80;;;;;;;;;;4975001;28;20361;-64
2023/01/08 06:26:26;;;;;;;10.03;5.33;;;;;;;;;;4973924;28;20053;-65
2023/01/08 06:28:52;;;;;;;8.90;5.03;;;;;;;;;;4956386;28;20038;-64
2023/01/08 06:31:17;;;;;;;9.83;5.00;;;;;;;;;;4972374;28;20481;-65
2023/01/08 06:33:43;;;;;;;10.53;4.67;;;;;;;;;;4956175;28;20504;-65
2023/01/08 06:36:09;;;;;;;7.03;5.17;;;;;;;;;;4956924;28;20042;-65
2023/01/08 06:38:34;;;;;;;9.43;4.50;;;;;;;;;;4972662;28;20035;-65
2023/01/08 06:41:04;;;;;;;10.23;4.87;;;;;;;;;;4956498;28;20357;-64
2023/01/08 06:43:30;;;;;;;7.22;3.90;;;;;;;;;;4973433;28;20070;-64
2023/01/08 06:45:57;;;;;;;7.83;3.73;;;;;;;;;;4971998;28;20529;-64
2023/01/08 06:48:23;;;;;;;11.37;5.27;;;;;;;;;;4955311;28;20126;-63
2023/01/08 06:50:49;;;;;;;11.33;5.63;;;;;;;;;;4973083;28;20788;-64
2023/01/08 06:53:14;;;;;;;6.50;4.60;;;;;;;;;;4972913;28;20301;-65
2023/01/08 06:55:40;;;;;;;10.37;5.17;;;;;;;;;;4972309;28;20130;-64
2023/01/08 06:58:05;;;;;;;11.57;4.67;;;;;;;;;;4988133;28;20053;-64
2023/01/08 07:00:31;;;;;;;9.20;4.73;;;;;;;;;;4991745;28;20038;-62
2023/01/08 07:02:57;;;;;;;13.50;6.27;;;;;;;;;;4975422;28;20391;-64
2023/01/08 07:05:23;;;;;;;11.70;4.97;;;;;;;;;;4975194;28;20038;-63
2023/01/08 07:07:49;;;;;;;15.13;6.83;;;;;;;;;;4991186;28;20038;-64
2023/01/08 07:10:14;;;;;;;14.07;5.70;;;;;;;;;;4991357;28;20361;-65
2023/01/08 07:12:40;;;;;;;10.27;4.93;;;;;;;;;;4975210;28;20065;-64
2023/01/08 07:15:06;;;;;;;14.77;5.90;;;;;;;;;;4991440;28;20049;-64
2023/01/08 07:17:32;;;;;;;15.03;5.70;;;;;;;;;;4991282;28;20038;-65
2023/01/08 07:19:58;;;;;;;14.13;6.87;;;;;;;;;;4991127;28;20049;-64
2023/01/08 07:22:24;;;;;;;19.43;7.93;;;;;;;;;;4992065;28;20358;-63
2023/01/08 07:24:53;;;;;;;15.50;6.33;;;;;;;;;;4991464;28;20042;-64
2023/01/08 07:27:18;;;;;;;19.63;7.97;;;;;;;;;;4991287;28;20038;-64
2023/01/08 07:29:44;;;;;;;17.97;7.70;;;;;;;;;;4959703;28;20030;-64
2023/01/08 07:32:09;;;;;;;18.40;8.37;;;;;;;;;;4992048;28;20346;-63
2023/01/08 07:34:35;;;;;;;21.90;8.47;;;;;;;;;;4992691;28;20042;-63
2023/01/08 07:37:01;;;;;;;20.97;8.07;;;;;;;;;;4991217;28;20034;-63
2023/01/08 07:39:27;;;;;;;21.83;8.00;;;;;;;;;;4992100;28;20064;-63
2023/01/08 07:41:52;;;;;;;16.50;8.30;;;;;;;;;;4983166;28;20875;-64
2023/01/08 07:44:18;;;;;;;15.90;7.57;;;;;;;;;;4981206;28;20171;-64
2023/01/08 07:46:44;;;;;;;14.93;7.80;;;;;;;;;;4982086;28;20117;-65
2023/01/08 07:49:10;;;;;;;14.70;7.53;;;;;;;;;;4978563;28;20034;-63
2023/01/08 07:51:36;;;;;;;17.97;7.43;;;;;;;;;;4977597;28;20043;-65
2023/01/08 07:54:02;;;;;;;14.83;6.67;;;;;;;;;;4979417;28;20101;-63
2023/01/08 07:56:27;;;;;;;15.63;7.70;;;;;;;;;;4980849;28;20067;-71
2023/01/08 07:58:55;;;;;;;22.53;7.23;;;;;;;;;;4983750;28;20098;-62
2023/01/08 08:01:21;;;;;;;14.97;7.20;;;;;;;;;;4977581;28;20122;-64
2023/01/08 08:03:47;;;;;;;21.20;7.45;;;;;;;;;;4982905;28;20089;-64
2023/01/08 08:06:13;;;;;;;14.35;7.18;;;;;;;;;;4980821;28;20046;-61
2023/01/08 08:08:38;;;;;;;12.38;6.70;;;;;;;;;;4973440;28;20049;-64
2023/01/08 08:11:04;;;;;;;14.55;7.55;;;;;;;;;;4976158;28;20030;-62
2023/01/08 08:13:29;;;;;;;14.75;7.68;;;;;;;;;;4978774;28;20034;-63
2023/01/08 08:15:59;;;;;;;17.30;6.53;;;;;;;;;;4980507;28;20072;-64
2023/01/08 08:18:25;;;;;;;18.90;7.15;;;;;;;;;;4989006;28;20048;-65
2023/01/08 08:20:50;;;;;;;16.08;7.20;;;;;;;;;;4987674;28;20164;-64
2023/01/08 08:23:16;;;;;;;13.82;7.40;;;;;;;;;;4975185;28;20049;-64
2023/01/08 08:25:42;;;;;;;16.50;8.02;;;;;;;;;;4953509;28;20046;-64
2023/01/08 08:28:08;;;;;;;16.70;9.43;;;;;;;;;;4978066;28;20042;-64
2023/01/08 08:30:34;;;;;;;14.57;8.55;;;;;;;;;;4968699;28;20385;-63
2023/01/08 08:33:01;;;;;;;15.25;7.90;;;;;;;;;;4980450;28;20042;-64
2023/01/08 08:35:27;;;;;;;16.13;8.30;;;;;;;;;;4982328;28;20046;-63
2023/01/08 08:37:52;;;;;;;15.20;7.65;;;;;;;;;;4967881;28;20046;-62
2023/01/08 08:40:18;;;;;;;15.40;8.15;;;;;;;;;;4982326;28;20039;-64
2023/01/08 08:42:44;;;;;;;16.67;8.50;;;;;;;;;;4967936;28;20092;-63
2023/01/08 08:45:09;;;;;;;21.33;9.35;;;;;;;;;;4976706;28;20057;-64
2023/01/08 08:47:35;;;;;;;15.65;9.23;;;;;;;;;;4974922;28;20043;-64
2023/01/08 08:50:01;;;;;;;15.77;7.57;;;;;;;;;;4988825;28;20034;-65
2023/01/08 08:52:29;;;;;;;16.10;8.27;;;;;;;;;;4989504;28;20042;-64
2023/01/08 08:54:54;;;;;;;21.13;8.70;;;;;;;;;;4989120;28;20053;-64
2023/01/08 08:57:22;;;;;;;18.02;8.65;;;;;;;;;;4991028;28;20026;-65
2023/01/08 08:59:47;;;;;;;21.10;9.52;;;;;;;;;;4992424;28;20070;-63
2023/01/08 09:02:13;;;;;;;18.30;8.75;;;;;;;;;;4992834;28;20093;-65
2023/01/08 09:04:39;;;;;;;20.60;9.55;;;;;;;;;;4976168;28;20105;-64
2023/01/08 09:07:04;;;;;;;19.80;9.07;;;;;;;;;;4994016;28;20110;-64
2023/01/08 09:09:30;;;;;;;15.07;9.00;;;;;;;;;;4993835;28;20046;-65
2023/01/08 09:11:56;;;;;;;17.00;9.32;;;;;;;;;;4992970;28;20050;-64
2023/01/08 09:14:22;;;;;;;18.85;9.52;;;;;;;;;;4994774;28;20097;-64
2023/01/08 09:16:47;;;;;;;21.65;9.20;;;;;;;;;;4961801;28;20189;-66
2023/01/08 09:19:13;;;;;;;16.13;8.23;;;;;;;;;;4994050;28;20100;-64
2023/01/08 09:21:38;;;;;;;16.15;9.05;;;;;;;;;;4976182;28;20042;-64
2023/01/08 09:24:05;;;;;;;15.20;8.48;;;;;;;;;;4992897;28;20099;-65
2023/01/08 09:26:33;;;;;;;18.85;9.25;;;;;;;;;;4989793;28;20093;-64
2023/01/08 09:28:58;;;;;;;22.50;10.32;;;;;;;;;;4981449;28;20132;-65
2023/01/08 09:31:24;;;;;;;21.20;10.95;;;;;;;;;;4983126;28;20074;-64
2023/01/08 09:33:50;;;;;;;20.95;10.98;;;;;;;;;;4965892;28;20057;-65
2023/01/08 09:36:16;;;;;;;16.40;9.20;;;;;;;;;;4982537;28;20030;-64
2023/01/08 09:38:42;;;;;;;15.63;8.82;;;;;;;;;;4984815;28;20027;-65
2023/01/08 09:41:11;;;;;;;20.83;9.68;;;;;;;;;;4982303;28;20115;-65
2023/01/08 09:43:39;;;;;;;22.40;10.65;;;;;;;;;;4982536;28;20052;-64
2023/01/08 09:46:06;;;;;;;17.17;9.55;;;;;;;;;;4965328;28;20186;-64
2023/01/08 09:48:36;;;;;;;17.50;9.25;;;;;;;;;;4965829;28;20042;-64
2023/01/08 09:51:01;;;;;;;15.00;8.82;;;;;;;;;;4984436;28;20058;-64
2023/01/08 09:53:28;;;;;;;17.23;9.43;;;;;;;;;;4965371;28;20050;-65
2023/01/08 09:55:55;;;;;;;16.88;8.77;;;;;;;;;;4981944;28;20485;-63
2023/01/08 09:58:24;;;;;;;16.77;8.45;;;;;;;;;;4983113;28;20034;-62
2023/01/08 10:00:49;;;;;;;15.38;8.52;;;;;;;;;;4981450;28;20039;-64
2023/01/08 10:03:15;;;;;;;16.73;8.23;;;;;;;;;;4981705;28;20026;-63
2023/01/08 10:05:40;;;;;;;16.77;8.20;;;;;;;;;;4982507;28;20473;-66
2023/01/08 10:08:10;;;;;;;22.67;8.93;;;;;;;;;;4964719;28;20121;-62
2023/01/08 10:10:37;;;;;;;19.03;9.63;;;;;;;;;;4983562;28;20053;-58
2023/01/08 10:13:03;;;;;;;19.50;8.93;;;;;;;;;;4981485;28;20309;-63
2023/01/08 10:15:28;;;;;;;21.20;9.23;;;;;;;;;;4982503;28;20085;-61
2023/01/08 10:17:54;;;;;;;19.40;8.53;;;;;;;;;;4981695;28;20133;-62
2023/01/08 10:20:21;;;;;;;17.57;8.33;;;;;;;;;;4964459;28;20038;-62
2023/01/08 10:22:47;;;;;;;19.27;8.83;;;;;;;;;;4962484;28;20072;-62
2023/01/08 10:25:15;;;;;;;18.27;8.40;;;;;;;;;;4981507;28;20066;-63
2023/01/08 10:27:52;;;;;;;13.93;7.63;;;;;;;;;;4982409;28;20104;-63
2023/01/08 10:30:19;;;;;;;19.83;9.00;;;;;;;;;;4983194;28;20027;-63
2023/01/08 10:32:54;;;;;;;20.33;8.57;;;;;;;;;;4980525;28;20121;-64
2023/01/08 10:35:21;;;;;;;19.53;8.03;;;;;;;;;;4964183;28;20042;-65
2023/01/08 10:37:49;;;;;;;16.90;8.00;;;;;;;;;;4961731;28;20132;-64
2023/01/08 10:40:32;;;;;;;16.63;8.13;;;;;;;;;;4964947;28;20038;-63
2023/01/08 10:43:04;;;;;;;17.27;8.23;;;;;;;;;;4981484;28;20031;-64
2023/01/08 10:45:31;;;;;;;21.23;8.07;;;;;;;;;;4991659;28;20385;-62
2023/01/08 10:47:58;;;;;;;19.20;8.67;;;;;;;;;;4975347;28;20476;-63
2023/01/08 10:50:26;;;;;;;19.57;8.53;;;;;;;;;;4992575;28;20050;-63
2023/01/08 10:53:01;;;;;;;18.10;8.17;;;;;;;;;;4991502;28;20504;-62
2023/01/08 10:55:28;;;;;;;17.83;8.90;;;;;;;;;;4959412;28;20050;-61
2023/01/08 10:57:55;;;;;;;20.03;9.00;;;;;;;;;;4975414;28;20067;-64
2023/01/08 11:00:22;;;;;;;19.90;9.60;;;;;;;;;;4974639;28;20037;-65
2023/01/08 11:02:49;;;;;;;16.47;8.70;;;;;;;;;;4975575;28;20038;-62
2023/01/08 11:05:15;;;;;;;20.30;8.07;;;;;;;;;;4976023;28;20042;-64
2023/01/08 11:07:40;;;;;;;18.83;8.50;;;;;;;;;;4967871;28;20182;-64
2023/01/08 11:10:18;;;;;;;24.50;10.33;;;;;;;;;;4980562;28;20093;-64
2023/01/08 11:12:44;;;;;;;23.40;10.87;;;;;;;;;;4979213;28;20041;-66
2023/01/08 11:15:13;;;;;;;20.47;10.33;;;;;;;;;;4980404;28;20046;-64
2023/01/08 11:17:38;;;;;;;19.90;10.47;;;;;;;;;;4982009;28;20042;-64
2023/01/08 11:20:09;;;;;;;27.40;9.60;;;;;;;;;;4981057;28;20113;-64
2023/01/08 11:22:34;;;;;;;21.77;9.20;;;;;;;;;;4962568;28;20038;-65
2023/01/08 11:25:00;;;;;;;25.40;10.50;;;;;;;;;;4949033;28;20041;-63
2023/01/08 11:27:37;;;;;;;21.67;9.20;;;;;;;;;;4980106;28;20046;-63
2023/01/08 11:30:05;;;;;;;21.10;9.43;;;;;;;;;;4984367;28;20037;-63
2023/01/08 11:32:37;;;;;;;22.07;9.67;;;;;;;;;;4974659;28;20610;-63
2023/01/08 11:35:07;;;;;;;24.23;10.17;;;;;;;;;;4991428;28;20049;-64
2023/01/08 11:37:35;;;;;;;24.83;11.07;;;;;;;;;;4991058;28;20405;-63
2023/01/08 11:40:01;;;;;;;23.17;9.70;;;;;;;;;;4982521;28;20031;-64
2023/01/08 11:42:28;;;;;;;22.13;9.03;;;;;;;;;;4981350;28;20042;-63
2023/01/08 11:45:14;;;;;;;15.83;8.93;;;;;;;;;;4982327;28;20095;-64
2023/01/08 11:47:45;;;;;;;18.27;8.40;;;;;;;;;;4978457;28;20043;-63
2023/01/08 11:50:13;;;;;;;18.27;8.43;;;;;;;;;;4980684;28;20140;-62
2023/01/08 11:52:51;;;;;;;17.60;8.20;;;;;;;;;;4965291;28;20416;-63
2023/01/08 11:55:30;;;;;;;18.23;9.17;;;;;;;;;;4982757;28;20212;-61
2023/01/08 11:58:23;;;;;;;25.83;8.83;;;;;;;;;;4981791;28;20541;-60
2023/01/08 12:01:02;;;;;;;19.27;8.70;;;;;;;;;;4981042;28;20045;-63
2023/01/08 12:03:48;;;;;;;22.37;8.93;;;;;;;;;;4962598;28;20030;-63
2023/01/08 12:06:30;;;;;;;16.77;7.67;;;;;;;;;;4980313;28;20091;-64
2023/01/08 12:09:05;;;;;;;15.07;8.13;;;;;;;;;;4981134;28;20034;-61
2023/01/08 12:11:37;;;;;;;18.43;8.87;;;;;;;;;;4950719;28;20278;-62
2023/01/08 12:14:09;;;;;;;19.87;8.47;;;;;;;;;;4981252;28;20493;-63
2023/01/08 12:16:45;;;;;;;23.13;8.33;;;;;;;;;;4950458;28;20361;-62
2023/01/08 12:19:11;;;;;;;21.43;8.03;;;;;;;;;;4951556;28;20401;-62
2023/01/08 12:21:52;;;;;;;20.57;8.53;;;;;;;;;;4977269;28;20381;-61
2023/01/08 12:24:34;;;;;;;22.90;9.10;;;;;;;;;;4981721;28;20085;-63
2023/01/08 12:27:00;;;;;;;22.63;10.40;;;;;;;;;;4966928;28;20336;-63
2023/01/08 12:29:26;;;;;;;18.57;8.67;;;;;;;;;;4983730;28;20593;-63
2023/01/08 12:31:51;;;;;;;16.87;9.03;;;;;;;;;;4981403;28;20039;-65
2023/01/08 12:34:33;;;;;;;20.87;9.27;;;;;;;;;;4968964;28;20080;-62
2023/01/08 12:37:05;;;;;;;21.90;9.90;;;;;;;;;;4965075;28;20129;-62
2023/01/08 12:39:34;;;;;;;25.83;9.83;;;;;;;;;;4983761;28;20340;-64
2023/01/08 12:42:06;;;;;;;20.73;10.50;;;;;;;;;;4981656;28;20285;-63
2023/01/08 12:44:32;;;;;;;26.53;10.53;;;;;;;;;;4966053;28;20295;-61
2023/01/08 12:47:00;;;;;;;21.33;10.20;;;;;;;;;;4982264;28;20284;-63
2023/01/08 12:49:39;;;;;;;24.93;10.30;;;;;;;;;;4984573;28;20038;-61
2023/01/08 12:52:09;;;;;;;24.20;10.30;;;;;;;;;;4980559;28;20292;-63
2023/01/08 12:54:41;;;;;;;18.25;9.07;;;;;;;;;;4970807;28;20314;-63
2023/01/08 12:57:10;;;;;;;20.67;9.60;;;;;;;;;;4941814;28;20437;-63
2023/01/08 12:59:54;;;;;;;31.93;10.23;;;;;;;;;;4975397;28;20286;-63
2023/01/08 13:02:33;;;;;;;24.13;9.90;;;;;;;;;;4958395;28;20352;-63
2023/01/08 13:05:09;;;;;;;23.77;9.97;;;;;;;;;;4975254;28;20290;-63
2023/01/08 13:07:41;;;;;;;21.53;9.93;;;;;;;;;;4974942;28;20344;-61
2023/01/08 13:10:07;;;;;;;23.20;8.70;;;;;;;;;;4974036;28;20281;-63
2023/01/08 13:12:35;;;;;;;30.07;10.97;;;;;;;;;;4957243;28;20289;-63
2023/01/08 13:15:01;;;;;;;25.37;9.77;;;;;;;;;;4980762;28;20306;-63
2023/01/08 13:17:28;;;;;;;26.37;10.40;;;;;;;;;;4979835;28;20277;-63
2023/01/08 13:19:58;;;;;;;20.27;10.37;;;;;;;;;;4983130;28;20274;-62
2023/01/08 13:22:33;;;;;;;25.93;10.27;;;;;;;;;;4983761;28;20092;-61
2023/01/08 13:25:15;;;;;;;21.27;9.53;;;;;;;;;;4992532;28;20307;-62
2023/01/08 13:27:42;;;;;;;20.80;9.37;;;;;;;;;;4993751;28;20277;-62
2023/01/08 13:30:26;;;;;;;23.63;11.63;;;;;;;;;;4977489;28;20289;-64
2023/01/08 13:32:52;;;;;;;24.17;9.93;;;;;;;;;;4982545;28;20070;-63
2023/01/08 13:35:21;;;;;;;21.60;10.57;;;;;;;;;;4972725;28;20312;-60
2023/01/08 13:37:50;;;;;;;21.27;9.60;;;;;;;;;;4973603;28;20290;-64
2023/01/08 13:40:34;;;;;;;39.23;9.47;;;;;;;;;;4973357;28;21366;-67
2023/01/08 13:43:08;;;;;;;24.93;10.60;;;;;;;;;;4959128;28;20285;-62
2023/01/08 13:45:38;;;;;;;27.23;9.63;;;;;;;;;;4974017;28;20289;-62
2023/01/08 13:48:04;;;;;;;25.33;9.97;;;;;;;;;;4973823;28;20278;-64
2023/01/08 13:50:31;;;;;;;19.33;8.87;;;;;;;;;;4973429;28;20613;-63
2023/01/08 13:52:57;;;;;;;28.10;10.50;;;;;;;;;;4973091;28;20086;-63
2023/01/08 13:55:27;;;;;;;24.20;10.73;;;;;;;;;;4941607;28;20378;-62
2023/01/08 13:57:54;;;;;;;30.63;11.10;;;;;;;;;;4938359;29;20310;-63
2023/01/08 14:00:23;;;;;;;19.10;9.47;;;;;;;;;;4972241;28;20748;-63
2023/01/08 14:02:49;;;;;;;23.37;10.90;;;;;;;;;;4972779;28;20388;-63
2023/01/08 14:05:19;;;;;;;21.03;10.07;;;;;;;;;;4974071;28;20288;-62
2023/01/08 14:07:45;;;;;;;25.02;10.43;;;;;;;;;;4956773;28;20440;-61
2023/01/08 14:10:12;;;;;;;27.13;10.57;;;;;;;;;;4972818;28;20118;-61
2023/01/08 14:12:38;;;;;;;23.50;9.80;;;;;;;;;;4973712;28;20058;-60
2023/01/08 14:15:08;;;;;;;24.13;10.07;;;;;;;;;;4957032;28;20302;-64
2023/01/08 14:17:34;;;;;;;23.90;9.63;;;;;;;;;;4957097;28;20053;-64
2023/01/08 14:20:00;;;;;;;23.60;9.80;;;;;;;;;;4973015;28;20039;-64
2023/01/08 14:22:30;;;;;;;23.40;9.80;;;;;;;;;;4972932;28;20479;-66
2023/01/08 14:24:58;;;;;;;19.95;9.30;;;;;;;;;;4940823;28;20050;-66
2023/01/08 14:27:25;;;;;;;24.50;9.93;;;;;;;;;;4940336;28;20042;-64
2023/01/08 14:29:51;;;;;;;19.80;9.13;;;;;;;;;;4972535;28;20302;-64
2023/01/08 14:32:18;;;;;;;21.53;9.80;;;;;;;;;;4971896;28;20292;-64
2023/01/08 14:34:44;;;;;;;23.03;9.83;;;;;;;;;;4952978;28;20395;-64
2023/01/08 14:37:14;;;;;;;20.40;10.43;;;;;;;;;;4964627;28;20341;-64